Time;durP1;ratioP1;P1;durP2;ratioP2;P2;SDS_P1;SDS_P2;PMS_P1;PMS_P2;Temp;Humidity;BMP_temperature;BMP_pressure;BME280_temperature;BME280_humidity;BME280_pressure;Samples;Min_cycle;Max_cycle;Signal;HPM_P1;HPM_P2
2020/12/24 00:05:01;;;;;;;10.55;9.45;;;;;;;;;;4572245;28;20098;-59
2020/12/24 00:07:26;;;;;;;9.82;8.82;;;;;;;;;;4191268;34;20106;-59
2020/12/24 00:09:52;;;;;;;9.70;8.80;;;;;;;;;;4197365;34;20145;-61
2020/12/24 00:12:18;;;;;;;10.18;9.27;;;;;;;;;;4192358;34;20519;-59
2020/12/24 00:14:44;;;;;;;10.43;9.43;;;;;;;;;;4204865;34;20109;-60
2020/12/24 00:17:10;;;;;;;10.00;9.00;;;;;;;;;;4204851;34;20120;-59
2020/12/24 00:19:36;;;;;;;9.80;8.90;;;;;;;;;;4205063;34;20105;-60
2020/12/24 00:22:02;;;;;;;11.05;9.88;;;;;;;;;;4205108;34;20118;-60
2020/12/24 00:24:27;;;;;;;10.23;9.32;;;;;;;;;;4205164;34;20141;-60
2020/12/24 00:26:53;;;;;;;11.20;10.05;;;;;;;;;;4205245;34;20117;-60
2020/12/24 00:29:19;;;;;;;10.68;9.68;;;;;;;;;;4205066;34;20671;-59
2020/12/24 00:31:45;;;;;;;11.02;9.95;;;;;;;;;;4205102;34;20109;-60
2020/12/24 00:34:11;;;;;;;10.88;9.77;;;;;;;;;;4204881;34;20549;-59
2020/12/24 00:36:38;;;;;;;11.10;10.07;;;;;;;;;;4205274;34;20514;-61
2020/12/24 00:39:04;;;;;;;11.20;10.10;;;;;;;;;;4192241;34;20137;-58
2020/12/24 00:41:30;;;;;;;11.82;10.63;;;;;;;;;;4204926;34;20193;-58
2020/12/24 00:43:56;;;;;;;11.52;10.43;;;;;;;;;;4204836;34;20120;-58
2020/12/24 00:46:21;;;;;;;11.95;10.68;;;;;;;;;;4204932;34;20185;-59
2020/12/24 00:48:47;;;;;;;12.05;10.88;;;;;;;;;;4192103;34;20142;-58
2020/12/24 00:51:13;;;;;;;11.55;10.45;;;;;;;;;;4204720;34;20536;-60
2020/12/24 00:53:39;;;;;;;12.52;11.30;;;;;;;;;;4204759;34;20133;-59
2020/12/24 00:56:06;;;;;;;12.45;11.25;;;;;;;;;;4205040;34;20121;-59
2020/12/24 00:58:33;;;;;;;12.27;11.07;;;;;;;;;;4204768;34;20518;-58
2020/12/24 01:00:59;;;;;;;13.15;11.80;;;;;;;;;;4191909;34;20102;-58
2020/12/24 01:03:24;;;;;;;13.10;11.80;;;;;;;;;;4204736;34;20201;-59
2020/12/24 01:05:51;;;;;;;13.43;12.02;;;;;;;;;;4204493;34;20181;-59
2020/12/24 01:08:17;;;;;;;13.43;11.93;;;;;;;;;;4204639;34;20442;-59
2020/12/24 01:10:42;;;;;;;13.75;12.37;;;;;;;;;;4191683;34;20198;-59
2020/12/24 01:13:08;;;;;;;14.23;12.65;;;;;;;;;;4204693;34;20224;-59
2020/12/24 01:15:34;;;;;;;14.02;12.52;;;;;;;;;;4204629;34;20204;-60
2020/12/24 01:18:00;;;;;;;14.68;12.23;;;;;;;;;;4191781;34;20233;-59
2020/12/24 01:20:26;;;;;;;15.60;12.57;;;;;;;;;;4191716;34;20113;-58
2020/12/24 01:22:52;;;;;;;13.57;12.27;;;;;;;;;;4204846;34;20098;-58
2020/12/24 01:25:17;;;;;;;14.85;13.35;;;;;;;;;;4204716;34;20102;-59
2020/12/24 01:27:43;;;;;;;15.73;14.13;;;;;;;;;;4204466;34;20229;-59
2020/12/24 01:30:09;;;;;;;13.43;12.02;;;;;;;;;;4204315;34;20133;-59
2020/12/24 01:32:35;;;;;;;14.73;13.23;;;;;;;;;;4204583;34;20426;-58
2020/12/24 01:35:01;;;;;;;14.73;13.10;;;;;;;;;;4204594;34;20209;-58
2020/12/24 01:37:27;;;;;;;16.02;14.15;;;;;;;;;;4204434;34;20102;-58
2020/12/24 01:39:53;;;;;;;14.25;12.70;;;;;;;;;;4204490;34;20129;-60
2020/12/24 01:42:19;;;;;;;14.60;13.07;;;;;;;;;;4204500;34;20204;-58
2020/12/24 01:44:48;;;;;;;15.80;13.35;;;;;;;;;;4204311;34;20097;-58
2020/12/24 01:47:14;;;;;;;16.87;14.90;;;;;;;;;;4204576;34;20165;-59
2020/12/24 01:49:40;;;;;;;14.50;13.00;;;;;;;;;;4191540;34;20495;-59
2020/12/24 01:52:06;;;;;;;14.95;12.52;;;;;;;;;;4204342;34;20116;-59
2020/12/24 01:54:32;;;;;;;16.60;13.48;;;;;;;;;;4191353;34;20610;-60
2020/12/24 01:56:57;;;;;;;15.27;13.13;;;;;;;;;;4191782;34;20310;-58
2020/12/24 01:59:23;;;;;;;15.23;13.62;;;;;;;;;;4191613;34;20149;-59
2020/12/24 02:01:50;;;;;;;15.45;13.85;;;;;;;;;;4204625;34;20466;-60
2020/12/24 02:04:16;;;;;;;13.82;12.43;;;;;;;;;;4206278;34;20133;-60
2020/12/24 02:06:43;;;;;;;14.38;11.95;;;;;;;;;;4206122;34;20474;-59
2020/12/24 02:09:09;;;;;;;14.80;12.70;;;;;;;;;;4206532;34;20101;-59
2020/12/24 02:11:37;;;;;;;16.42;13.60;;;;;;;;;;4193520;34;20113;-58
2020/12/24 02:14:03;;;;;;;15.30;12.70;;;;;;;;;;4206358;34;20188;-58
2020/12/24 02:16:29;;;;;;;14.23;12.70;;;;;;;;;;4206352;34;20114;-59
2020/12/24 02:18:55;;;;;;;16.55;13.57;;;;;;;;;;4193082;34;20454;-59
2020/12/24 02:21:21;;;;;;;13.48;12.10;;;;;;;;;;4206173;34;20124;-59
2020/12/24 02:23:47;;;;;;;13.80;12.37;;;;;;;;;;4206072;34;20133;-60
2020/12/24 02:26:12;;;;;;;14.60;12.55;;;;;;;;;;4206142;34;20136;-59
2020/12/24 02:28:39;;;;;;;13.52;12.23;;;;;;;;;;4206322;34;20198;-60
2020/12/24 02:31:05;;;;;;;15.50;13.90;;;;;;;;;;4205970;34;20132;-59
2020/12/24 02:33:31;;;;;;;14.60;12.70;;;;;;;;;;4193257;34;20137;-60
2020/12/24 02:35:57;;;;;;;15.13;13.52;;;;;;;;;;4205860;34;20130;-61
2020/12/24 02:38:23;;;;;;;15.68;13.38;;;;;;;;;;4206009;34;20650;-59
2020/12/24 02:40:49;;;;;;;14.40;12.45;;;;;;;;;;4205859;34;20125;-59
2020/12/24 02:43:15;;;;;;;13.73;12.13;;;;;;;;;;4206250;34;20112;-59
2020/12/24 02:45:41;;;;;;;13.90;12.40;;;;;;;;;;4205821;34;20156;-60
2020/12/24 02:48:07;;;;;;;15.05;13.45;;;;;;;;;;4205904;34;20121;-59
2020/12/24 02:50:33;;;;;;;15.60;13.57;;;;;;;;;;4205672;34;20237;-60
2020/12/24 02:52:58;;;;;;;21.15;17.58;;;;;;;;;;4205840;34;20133;-60
2020/12/24 02:55:24;;;;;;;14.50;12.88;;;;;;;;;;4205800;34;20122;-62
2020/12/24 02:57:50;;;;;;;15.23;13.73;;;;;;;;;;4205926;34;20290;-59
2020/12/24 03:00:16;;;;;;;15.50;13.60;;;;;;;;;;4205714;34;20530;-59
2020/12/24 03:02:42;;;;;;;14.48;12.95;;;;;;;;;;4205955;34;20473;-60
2020/12/24 03:05:08;;;;;;;14.77;13.23;;;;;;;;;;4205903;34;20117;-60
2020/12/24 03:07:35;;;;;;;13.52;12.13;;;;;;;;;;4205655;34;20121;-59
2020/12/24 03:10:01;;;;;;;14.77;13.27;;;;;;;;;;4205772;34;20149;-59
2020/12/24 03:12:27;;;;;;;14.40;12.57;;;;;;;;;;4205600;34;20113;-59
2020/12/24 03:14:53;;;;;;;17.08;14.07;;;;;;;;;;4204826;34;20457;-61
2020/12/24 03:17:20;;;;;;;13.93;12.52;;;;;;;;;;4205793;34;20113;-59
2020/12/24 03:19:45;;;;;;;14.20;12.37;;;;;;;;;;4203763;34;20121;-61
2020/12/24 03:22:11;;;;;;;14.70;12.93;;;;;;;;;;4203553;34;20121;-60
2020/12/24 03:24:37;;;;;;;14.45;12.82;;;;;;;;;;4190534;34;20116;-61
2020/12/24 03:27:03;;;;;;;15.00;12.40;;;;;;;;;;4179132;34;20122;-60
2020/12/24 03:29:29;;;;;;;14.50;12.68;;;;;;;;;;4203418;34;20674;-60
2020/12/24 03:31:56;;;;;;;15.63;13.95;;;;;;;;;;4203718;34;20473;-61
2020/12/24 03:34:21;;;;;;;14.60;13.10;;;;;;;;;;4204454;34;20110;-60
2020/12/24 03:36:47;;;;;;;16.15;12.95;;;;;;;;;;4205521;34;20144;-60
2020/12/24 03:39:14;;;;;;;15.45;13.82;;;;;;;;;;4205665;34;20125;-59
2020/12/24 03:41:40;;;;;;;15.82;14.18;;;;;;;;;;4205487;34;20121;-59
2020/12/24 03:44:05;;;;;;;16.00;14.40;;;;;;;;;;4205286;34;20118;-60
2020/12/24 03:46:33;;;;;;;15.95;13.85;;;;;;;;;;4205454;34;20122;-57
2020/12/24 03:49:00;;;;;;;17.08;13.75;;;;;;;;;;4205433;34;20207;-57
2020/12/24 03:51:26;;;;;;;17.67;14.70;;;;;;;;;;4205489;34;20125;-59
2020/12/24 03:53:52;;;;;;;15.38;13.75;;;;;;;;;;4205393;34;20579;-57
2020/12/24 03:56:17;;;;;;;16.80;14.43;;;;;;;;;;4205383;34;20200;-60
2020/12/24 03:58:43;;;;;;;16.10;14.38;;;;;;;;;;4192465;34;20593;-57
2020/12/24 04:01:10;;;;;;;14.70;13.20;;;;;;;;;;4205499;34;20098;-57
2020/12/24 04:03:36;;;;;;;15.75;13.25;;;;;;;;;;4205310;34;20454;-57
2020/12/24 04:06:03;;;;;;;15.43;12.65;;;;;;;;;;4205087;34;20197;-57
2020/12/24 04:08:30;;;;;;;15.95;13.98;;;;;;;;;;4205161;34;20140;-58
2020/12/24 04:10:55;;;;;;;14.90;13.05;;;;;;;;;;4205166;34;20212;-58
2020/12/24 04:13:21;;;;;;;15.32;13.68;;;;;;;;;;4205192;34;20568;-59
2020/12/24 04:15:47;;;;;;;17.48;15.18;;;;;;;;;;4205343;34;20133;-57
2020/12/24 04:18:13;;;;;;;14.77;13.20;;;;;;;;;;4205215;34;20526;-57
2020/12/24 04:20:39;;;;;;;14.80;13.20;;;;;;;;;;4205251;34;20221;-57
2020/12/24 04:23:05;;;;;;;15.00;13.13;;;;;;;;;;4192467;34;20105;-58
2020/12/24 04:25:31;;;;;;;14.68;13.10;;;;;;;;;;4204760;34;20118;-58
2020/12/24 04:27:57;;;;;;;16.30;13.73;;;;;;;;;;4204953;34;20112;-57
2020/12/24 04:30:23;;;;;;;16.12;13.95;;;;;;;;;;4205067;34;20541;-58
2020/12/24 04:32:49;;;;;;;14.95;12.45;;;;;;;;;;4205064;34;20137;-58
2020/12/24 04:35:15;;;;;;;14.95;13.45;;;;;;;;;;4204979;34;20137;-58
2020/12/24 04:37:40;;;;;;;16.42;14.63;;;;;;;;;;4192219;34;20294;-57
2020/12/24 04:40:08;;;;;;;15.52;13.93;;;;;;;;;;4204773;34;20113;-58
2020/12/24 04:42:34;;;;;;;15.25;13.65;;;;;;;;;;4204999;34;20540;-57
2020/12/24 04:45:00;;;;;;;15.70;13.75;;;;;;;;;;4180511;34;20129;-58
2020/12/24 04:47:27;;;;;;;16.30;13.82;;;;;;;;;;4204784;34;20125;-57
2020/12/24 04:49:53;;;;;;;15.07;13.55;;;;;;;;;;4204879;34;20110;-57
2020/12/24 04:52:19;;;;;;;16.48;14.38;;;;;;;;;;4205033;34;20294;-57
2020/12/24 04:54:45;;;;;;;14.18;12.75;;;;;;;;;;4204589;34;20531;-57
2020/12/24 04:57:11;;;;;;;14.10;12.60;;;;;;;;;;4180532;34;20502;-58
2020/12/24 04:59:37;;;;;;;17.10;13.57;;;;;;;;;;4204693;34;20229;-59
2020/12/24 05:02:04;;;;;;;15.07;12.75;;;;;;;;;;4204610;34;20536;-58
2020/12/24 05:04:30;;;;;;;13.77;12.10;;;;;;;;;;4204390;34;20105;-57
2020/12/24 05:07:04;;;;;;;14.60;13.10;;;;;;;;;;4204649;34;20157;-58
2020/12/24 05:09:31;;;;;;;13.85;12.37;;;;;;;;;;4204507;34;20177;-58
2020/12/24 05:11:57;;;;;;;15.35;13.18;;;;;;;;;;4191787;34;20143;-59
2020/12/24 05:14:24;;;;;;;15.07;13.15;;;;;;;;;;4204699;34;20141;-57
2020/12/24 05:17:00;;;;;;;13.25;11.85;;;;;;;;;;4204455;34;20129;-58
2020/12/24 05:19:47;;;;;;;15.02;13.02;;;;;;;;;;4204491;34;20127;-58
2020/12/24 05:22:20;;;;;;;14.68;13.18;;;;;;;;;;4181011;34;20106;-57
2020/12/24 05:24:46;;;;;;;15.20;13.00;;;;;;;;;;4204326;34;20122;-57
2020/12/24 05:27:15;;;;;;;14.32;12.20;;;;;;;;;;4204667;34;20141;-57
2020/12/24 05:29:42;;;;;;;13.85;12.37;;;;;;;;;;4204607;34;20090;-57
2020/12/24 05:32:08;;;;;;;14.20;12.13;;;;;;;;;;4204379;34;20106;-59
2020/12/24 05:34:34;;;;;;;14.60;12.27;;;;;;;;;;4204496;34;20312;-57
2020/12/24 05:37:13;;;;;;;14.25;12.75;;;;;;;;;;4203488;34;20113;-58
2020/12/24 05:39:43;;;;;;;15.63;13.90;;;;;;;;;;4204261;34;20114;-58
2020/12/24 05:42:09;;;;;;;14.93;13.32;;;;;;;;;;4204596;34;20209;-58
2020/12/24 05:44:35;;;;;;;15.32;12.68;;;;;;;;;;4204165;34;20528;-58
2020/12/24 05:47:01;;;;;;;13.32;11.60;;;;;;;;;;4204164;34;20224;-59
2020/12/24 05:49:27;;;;;;;12.80;11.48;;;;;;;;;;4204196;34;20124;-60
2020/12/24 05:51:59;;;;;;;13.80;12.05;;;;;;;;;;4204171;34;20190;-59
2020/12/24 05:54:27;;;;;;;13.27;11.88;;;;;;;;;;4204163;34;20152;-58
2020/12/24 05:56:54;;;;;;;14.45;11.95;;;;;;;;;;4204170;34;20121;-57
2020/12/24 05:59:24;;;;;;;14.73;12.43;;;;;;;;;;4203976;34;20603;-59
2020/12/24 06:02:12;;;;;;;14.15;12.75;;;;;;;;;;4204035;34;20631;-57
2020/12/24 06:04:44;;;;;;;14.73;12.23;;;;;;;;;;4203774;34;20130;-59
2020/12/24 06:07:13;;;;;;;13.52;12.13;;;;;;;;;;4203962;34;20160;-57
2020/12/24 06:09:44;;;;;;;13.73;12.07;;;;;;;;;;4203826;34;20136;-58
2020/12/24 06:12:20;;;;;;;14.30;11.65;;;;;;;;;;4204089;34;20098;-58
2020/12/24 06:14:50;;;;;;;13.20;11.82;;;;;;;;;;4203733;34;20206;-57
2020/12/24 06:17:18;;;;;;;12.88;11.20;;;;;;;;;;4203967;34;20102;-56
2020/12/24 06:19:44;;;;;;;12.57;11.27;;;;;;;;;;4203639;34;20122;-56
2020/12/24 06:22:10;;;;;;;12.65;11.45;;;;;;;;;;4204109;34;20140;-57
2020/12/24 06:24:46;;;;;;;13.25;11.85;;;;;;;;;;4203636;34;20118;-58
2020/12/24 06:27:15;;;;;;;12.32;11.02;;;;;;;;;;4191323;34;20221;-58
2020/12/24 06:29:44;;;;;;;13.93;11.38;;;;;;;;;;4179809;34;20455;-57
2020/12/24 06:32:10;;;;;;;12.77;11.48;;;;;;;;;;4191148;34;20136;-58
2020/12/24 06:34:39;;;;;;;11.23;10.07;;;;;;;;;;4191119;34;20121;-56
2020/12/24 06:37:16;;;;;;;11.68;10.48;;;;;;;;;;4203793;34;20090;-57
2020/12/24 06:39:44;;;;;;;12.15;10.80;;;;;;;;;;4203682;34;20166;-59
2020/12/24 06:42:35;;;;;;;13.13;11.82;;;;;;;;;;4203713;34;20161;-58
2020/12/24 06:45:05;;;;;;;13.00;11.70;;;;;;;;;;4203589;34;20205;-58
2020/12/24 06:47:31;;;;;;;13.73;12.30;;;;;;;;;;4204044;34;20137;-59
2020/12/24 06:49:56;;;;;;;14.20;12.77;;;;;;;;;;4205917;34;20175;-57
2020/12/24 06:52:30;;;;;;;13.90;12.43;;;;;;;;;;4206051;34;20121;-57
2020/12/24 06:55:12;;;;;;;12.55;11.25;;;;;;;;;;4205665;34;20125;-57
2020/12/24 06:57:38;;;;;;;11.35;10.25;;;;;;;;;;4206072;34;20110;-61
2020/12/24 07:00:13;;;;;;;11.02;9.85;;;;;;;;;;4181436;34;20549;-57
2020/12/24 07:02:39;;;;;;;11.30;10.10;;;;;;;;;;4205739;34;20206;-58
2020/12/24 07:05:05;;;;;;;12.95;10.38;;;;;;;;;;4192534;34;20101;-57
2020/12/24 07:07:44;;;;;;;10.57;9.48;;;;;;;;;;4205403;34;20108;-57
2020/12/24 07:10:44;;;;;;;11.98;10.77;;;;;;;;;;4205735;34;20137;-57
2020/12/24 07:13:11;;;;;;;10.30;9.25;;;;;;;;;;4200434;34;20602;-57
2020/12/24 07:15:43;;;;;;;10.40;9.30;;;;;;;;;;4205458;34;20218;-58
2020/12/24 07:18:11;;;;;;;9.93;8.93;;;;;;;;;;4205966;34;20101;-56
2020/12/24 07:20:37;;;;;;;10.27;9.20;;;;;;;;;;4205522;34;20547;-57
2020/12/24 07:23:03;;;;;;;13.38;9.60;;;;;;;;;;4192587;34;20117;-58
2020/12/24 07:25:29;;;;;;;9.52;8.57;;;;;;;;;;4205412;34;20121;-56
2020/12/24 07:27:55;;;;;;;10.35;9.32;;;;;;;;;;4181437;34;20532;-57
2020/12/24 07:30:21;;;;;;;11.45;9.38;;;;;;;;;;4205320;34;20129;-58
2020/12/24 07:32:51;;;;;;;11.00;9.88;;;;;;;;;;4205537;34;20565;-58
2020/12/24 07:35:17;;;;;;;9.90;8.98;;;;;;;;;;4192730;34;20683;-57
2020/12/24 07:37:43;;;;;;;10.52;9.43;;;;;;;;;;4205436;34;20094;-57
2020/12/24 07:40:10;;;;;;;10.38;9.35;;;;;;;;;;4192324;34;20459;-56
2020/12/24 07:42:36;;;;;;;10.45;9.27;;;;;;;;;;4192717;34;20113;-59
2020/12/24 07:45:02;;;;;;;9.75;8.60;;;;;;;;;;4205254;34;20256;-57
2020/12/24 07:47:28;;;;;;;9.93;8.13;;;;;;;;;;4205379;34;20216;-57
2020/12/24 07:49:54;;;;;;;12.98;9.82;;;;;;;;;;4205347;34;20532;-58
2020/12/24 07:52:20;;;;;;;9.63;8.55;;;;;;;;;;4205410;34;20113;-56
2020/12/24 07:54:46;;;;;;;10.55;9.48;;;;;;;;;;4205071;34;20209;-57
2020/12/24 07:57:20;;;;;;;9.60;8.60;;;;;;;;;;4205210;34;20121;-57
2020/12/24 07:59:46;;;;;;;8.93;8.00;;;;;;;;;;4204473;34;20130;-57
2020/12/24 08:02:12;;;;;;;9.75;8.65;;;;;;;;;;4205085;34;20140;-57
2020/12/24 08:04:37;;;;;;;10.43;8.93;;;;;;;;;;4204921;34;20276;-57
2020/12/24 08:07:03;;;;;;;9.43;8.27;;;;;;;;;;4205077;34;20125;-57
2020/12/24 08:09:29;;;;;;;9.25;8.18;;;;;;;;;;4205066;34;20117;-57
2020/12/24 08:11:59;;;;;;;9.20;8.30;;;;;;;;;;4205120;34;20577;-57
2020/12/24 08:14:27;;;;;;;10.68;9.45;;;;;;;;;;4205000;34;20122;-57
2020/12/24 08:16:54;;;;;;;8.65;7.72;;;;;;;;;;4205176;34;20228;-59
2020/12/24 08:19:31;;;;;;;11.20;8.23;;;;;;;;;;4192168;34;20186;-57
2020/12/24 08:22:16;;;;;;;9.73;8.82;;;;;;;;;;4180868;34;20122;-57
2020/12/24 08:24:41;;;;;;;10.93;8.63;;;;;;;;;;4204956;34;20155;-57
2020/12/24 08:27:07;;;;;;;9.52;8.63;;;;;;;;;;4180856;34;20129;-58
2020/12/24 08:29:35;;;;;;;9.55;8.57;;;;;;;;;;4205202;34;20221;-58
2020/12/24 08:32:06;;;;;;;9.50;8.60;;;;;;;;;;4191100;34;20481;-57
2020/12/24 08:34:43;;;;;;;9.40;8.50;;;;;;;;;;4179426;34;20118;-58
2020/12/24 08:37:09;;;;;;;10.32;9.18;;;;;;;;;;4204298;34;20148;-58
2020/12/24 08:39:35;;;;;;;10.73;9.07;;;;;;;;;;4204963;34;20193;-60
2020/12/24 08:42:03;;;;;;;9.70;8.70;;;;;;;;;;4204835;34;20116;-57
2020/12/24 08:44:29;;;;;;;9.93;8.93;;;;;;;;;;4192236;34;20230;-58
2020/12/24 08:47:02;;;;;;;10.02;8.98;;;;;;;;;;4204818;34;20083;-57
2020/12/24 08:49:28;;;;;;;10.05;9.05;;;;;;;;;;4204942;34;20217;-58
2020/12/24 08:52:22;;;;;;;10.95;9.85;;;;;;;;;;4204889;34;20417;-57
2020/12/24 08:55:01;;;;;;;9.57;8.60;;;;;;;;;;4204673;34;20110;-57
2020/12/24 08:57:27;;;;;;;9.90;8.95;;;;;;;;;;4205093;34;20218;-58
2020/12/24 08:59:56;;;;;;;9.00;8.10;;;;;;;;;;4180352;34;20138;-57
2020/12/24 09:02:33;;;;;;;10.15;9.15;;;;;;;;;;4204802;34;20124;-57
2020/12/24 09:05:00;;;;;;;11.88;10.77;;;;;;;;;;4204497;34;20141;-59
2020/12/24 09:07:30;;;;;;;12.55;11.20;;;;;;;;;;4204636;34;20122;-55
2020/12/24 09:10:06;;;;;;;11.57;10.52;;;;;;;;;;4204561;34;20279;-58
2020/12/24 09:12:34;;;;;;;11.98;10.90;;;;;;;;;;4191997;34;20129;-57
2020/12/24 09:15:01;;;;;;;12.13;11.02;;;;;;;;;;4204503;34;20547;-56
2020/12/24 09:17:27;;;;;;;12.80;11.60;;;;;;;;;;4204623;34;20121;-57
2020/12/24 09:20:29;;;;;;;11.70;10.57;;;;;;;;;;4204739;34;20108;-56
2020/12/24 09:22:56;;;;;;;12.80;11.32;;;;;;;;;;4204556;34;20546;-58
2020/12/24 09:25:33;;;;;;;11.82;10.63;;;;;;;;;;4204510;34;20568;-57
2020/12/24 09:27:59;;;;;;;12.32;11.23;;;;;;;;;;4204437;34;20166;-59
2020/12/24 09:30:25;;;;;;;12.13;10.93;;;;;;;;;;4195492;34;20230;-58
2020/12/24 09:32:57;;;;;;;11.50;10.48;;;;;;;;;;4194265;34;20142;-57
2020/12/24 09:35:23;;;;;;;10.75;9.65;;;;;;;;;;4199001;34;20115;-59
2020/12/24 09:37:50;;;;;;;9.50;8.60;;;;;;;;;;4204255;34;20439;-58
2020/12/24 09:40:16;;;;;;;9.60;8.77;;;;;;;;;;4197408;34;20126;-59
2020/12/24 09:42:42;;;;;;;10.20;9.15;;;;;;;;;;4190528;34;20208;-58
2020/12/24 09:45:09;;;;;;;9.75;8.75;;;;;;;;;;4190199;34;20082;-61
2020/12/24 09:47:35;;;;;;;9.75;8.75;;;;;;;;;;4190758;34;20122;-57
2020/12/24 09:50:01;;;;;;;10.52;9.48;;;;;;;;;;4189811;34;20105;-60
2020/12/24 09:52:27;;;;;;;9.60;8.68;;;;;;;;;;4189739;34;20101;-59
2020/12/24 09:54:53;;;;;;;9.90;8.73;;;;;;;;;;4181609;34;20102;-57
2020/12/24 09:57:19;;;;;;;8.73;7.93;;;;;;;;;;4204298;34;20209;-56
2020/12/24 09:59:45;;;;;;;8.88;8.02;;;;;;;;;;4203928;34;20249;-59
2020/12/24 10:02:11;;;;;;;9.50;8.60;;;;;;;;;;4204360;34;20201;-58
2020/12/24 10:04:37;;;;;;;9.10;8.20;;;;;;;;;;4203677;34;20129;-58
2020/12/24 10:07:03;;;;;;;9.27;8.48;;;;;;;;;;4203720;34;20153;-59
2020/12/24 10:09:29;;;;;;;8.93;8.10;;;;;;;;;;4203623;34;20109;-57
2020/12/24 10:11:55;;;;;;;8.52;7.70;;;;;;;;;;4190484;34;20106;-57
2020/12/24 10:14:22;;;;;;;9.77;8.77;;;;;;;;;;4177092;34;20546;-57
2020/12/24 10:16:48;;;;;;;9.13;8.23;;;;;;;;;;4177461;34;20122;-58
2020/12/24 10:19:14;;;;;;;8.63;7.72;;;;;;;;;;4190388;34;20169;-58
2020/12/24 10:21:40;;;;;;;7.68;6.97;;;;;;;;;;4203923;34;20549;-57
2020/12/24 10:24:06;;;;;;;8.38;7.40;;;;;;;;;;4192584;34;20221;-61
2020/12/24 10:26:32;;;;;;;8.35;7.50;;;;;;;;;;4206194;34;20149;-57
2020/12/24 10:28:58;;;;;;;8.82;7.40;;;;;;;;;;4205832;34;20129;-57
2020/12/24 10:31:24;;;;;;;8.60;7.80;;;;;;;;;;4205851;34;20446;-57
2020/12/24 10:33:50;;;;;;;8.50;7.70;;;;;;;;;;4206166;34;20142;-57
2020/12/24 10:36:25;;;;;;;9.82;7.85;;;;;;;;;;4206112;34;20105;-57
2020/12/24 10:38:51;;;;;;;7.95;7.25;;;;;;;;;;4191743;34;20136;-56
2020/12/24 10:41:17;;;;;;;10.27;8.70;;;;;;;;;;4192051;34;20109;-57
2020/12/24 10:43:44;;;;;;;7.50;6.75;;;;;;;;;;4192135;34;20124;-56
2020/12/24 10:46:20;;;;;;;7.85;6.65;;;;;;;;;;4192105;34;20101;-57
2020/12/24 10:48:46;;;;;;;6.53;5.93;;;;;;;;;;4191825;34;20209;-58
2020/12/24 10:51:13;;;;;;;6.35;5.72;;;;;;;;;;4192045;34;20118;-57
2020/12/24 10:53:40;;;;;;;6.43;5.82;;;;;;;;;;4195738;34;20125;-59
2020/12/24 10:56:13;;;;;;;6.60;6.00;;;;;;;;;;4203239;34;20128;-57
2020/12/24 10:58:41;;;;;;;7.28;6.68;;;;;;;;;;4205308;34;20132;-59
2020/12/24 11:01:13;;;;;;;6.57;5.97;;;;;;;;;;4205215;34;20106;-58
2020/12/24 11:03:39;;;;;;;6.85;6.20;;;;;;;;;;4205556;34;20222;-58
2020/12/24 11:06:06;;;;;;;6.25;5.70;;;;;;;;;;4205438;34;20529;-59
2020/12/24 11:08:32;;;;;;;6.85;6.15;;;;;;;;;;4192585;34;20125;-55
2020/12/24 11:10:58;;;;;;;6.85;6.15;;;;;;;;;;4194428;34;20218;-58
2020/12/24 11:13:24;;;;;;;6.00;5.50;;;;;;;;;;4191923;34;20097;-58
2020/12/24 11:15:51;;;;;;;5.68;5.18;;;;;;;;;;4191511;34;20121;-57
2020/12/24 11:18:17;;;;;;;6.03;5.43;;;;;;;;;;4191518;34;20106;-57
2020/12/24 11:20:42;;;;;;;5.60;5.10;;;;;;;;;;4191515;34;20121;-58
2020/12/24 11:23:08;;;;;;;5.90;5.40;;;;;;;;;;4191607;34;20213;-58
2020/12/24 11:25:35;;;;;;;6.10;5.50;;;;;;;;;;4191323;34;20133;-58
2020/12/24 11:28:01;;;;;;;6.05;5.20;;;;;;;;;;4191415;34;20116;-58
2020/12/24 11:30:28;;;;;;;5.60;5.07;;;;;;;;;;4191138;34;20555;-59
2020/12/24 11:32:54;;;;;;;6.22;5.70;;;;;;;;;;4191791;34;20101;-56
2020/12/24 11:35:20;;;;;;;5.37;4.87;;;;;;;;;;4190620;34;20109;-58
2020/12/24 11:37:46;;;;;;;5.35;4.85;;;;;;;;;;4199505;34;20098;-58
2020/12/24 11:40:12;;;;;;;5.35;4.85;;;;;;;;;;4198889;34;20109;-57
2020/12/24 11:42:38;;;;;;;4.75;4.30;;;;;;;;;;4191412;34;20122;-56
2020/12/24 11:45:04;;;;;;;4.40;4.00;;;;;;;;;;4191171;34;20122;-55
2020/12/24 11:47:34;;;;;;;4.12;3.72;;;;;;;;;;4191568;34;20106;-56
2020/12/24 11:50:00;;;;;;;5.53;4.40;;;;;;;;;;4191425;34;20467;-58
2020/12/24 11:52:26;;;;;;;4.18;3.80;;;;;;;;;;4191129;34;20125;-58
2020/12/24 11:54:53;;;;;;;3.95;3.60;;;;;;;;;;4195557;34;20120;-58
2020/12/24 11:57:18;;;;;;;5.10;3.97;;;;;;;;;;4205452;34;20133;-59
2020/12/24 11:59:44;;;;;;;4.32;3.87;;;;;;;;;;4191826;34;20121;-59
2020/12/24 12:02:10;;;;;;;4.60;4.18;;;;;;;;;;4205243;34;20500;-61
2020/12/24 12:04:36;;;;;;;3.80;3.40;;;;;;;;;;4204662;34;20178;-60
2020/12/24 12:07:02;;;;;;;3.70;3.40;;;;;;;;;;4202676;34;20134;-60
2020/12/24 12:09:28;;;;;;;3.75;3.45;;;;;;;;;;4190725;34;20201;-59
2020/12/24 12:11:54;;;;;;;3.90;3.20;;;;;;;;;;4178641;34;20129;-60
2020/12/24 12:14:20;;;;;;;4.45;3.15;;;;;;;;;;4190595;34;20313;-60
2020/12/24 12:16:49;;;;;;;3.50;3.10;;;;;;;;;;4191138;34;20137;-60
2020/12/24 12:19:15;;;;;;;6.97;5.60;;;;;;;;;;4190777;34;20181;-59
2020/12/24 12:21:41;;;;;;;4.57;4.18;;;;;;;;;;4191064;34;20548;-60
2020/12/24 12:24:07;;;;;;;5.05;4.55;;;;;;;;;;4190894;34;20209;-59
2020/12/24 12:26:33;;;;;;;3.80;3.50;;;;;;;;;;4191374;34;20508;-60
2020/12/24 12:28:59;;;;;;;3.45;3.15;;;;;;;;;;4190948;34;20122;-60
2020/12/24 12:31:25;;;;;;;3.22;2.92;;;;;;;;;;4191114;34;20558;-60
2020/12/24 12:33:52;;;;;;;3.53;3.22;;;;;;;;;;4191232;34;20122;-60
2020/12/24 12:36:18;;;;;;;3.53;3.22;;;;;;;;;;4191201;34;20201;-59
2020/12/24 12:38:46;;;;;;;3.45;3.10;;;;;;;;;;4204801;34;20105;-58
2020/12/24 12:41:12;;;;;;;3.78;3.47;;;;;;;;;;4204842;34;20120;-59
2020/12/24 12:43:39;;;;;;;3.85;3.55;;;;;;;;;;4204914;34;20105;-62
2020/12/24 12:46:05;;;;;;;3.83;3.40;;;;;;;;;;4204748;34;20188;-59
2020/12/24 12:48:33;;;;;;;3.50;3.20;;;;;;;;;;4192218;34;20097;-59
2020/12/24 12:51:00;;;;;;;3.42;3.12;;;;;;;;;;4204844;34;20129;-60
2020/12/24 12:53:26;;;;;;;3.80;3.45;;;;;;;;;;4204194;34;20937;-58
2020/12/24 12:55:52;;;;;;;3.90;3.60;;;;;;;;;;4191943;34;20450;-58
2020/12/24 12:58:18;;;;;;;4.00;3.65;;;;;;;;;;4204934;34;20090;-58
2020/12/24 13:00:44;;;;;;;4.47;4.03;;;;;;;;;;4204738;34;20106;-58
2020/12/24 13:03:09;;;;;;;4.50;4.10;;;;;;;;;;4204782;34;20108;-58
2020/12/24 13:05:35;;;;;;;4.22;3.83;;;;;;;;;;4204590;34;20130;-58
2020/12/24 13:08:02;;;;;;;4.12;3.72;;;;;;;;;;4204902;34;20118;-62
2020/12/24 13:10:28;;;;;;;4.40;3.85;;;;;;;;;;4204478;34;20113;-64
2020/12/24 13:12:54;;;;;;;4.60;3.85;;;;;;;;;;4205020;34;20246;-62
2020/12/24 13:15:20;;;;;;;4.20;3.80;;;;;;;;;;4204526;34;20136;-63
2020/12/24 13:17:46;;;;;;;5.03;4.53;;;;;;;;;;4191882;34;20133;-64
2020/12/24 13:20:12;;;;;;;5.30;4.57;;;;;;;;;;4191857;34;20136;-64
2020/12/24 13:22:38;;;;;;;4.85;4.10;;;;;;;;;;4192035;34;20466;-64
2020/12/24 13:25:05;;;;;;;4.75;4.35;;;;;;;;;;4204703;34;20208;-64
2020/12/24 13:27:31;;;;;;;5.45;4.95;;;;;;;;;;4180838;34;20525;-63
2020/12/24 13:29:57;;;;;;;5.10;4.60;;;;;;;;;;4204515;34;20208;-63
2020/12/24 13:32:23;;;;;;;5.65;5.10;;;;;;;;;;4204511;34;20193;-63
2020/12/24 13:34:48;;;;;;;5.68;5.18;;;;;;;;;;4191483;34;20475;-63
2020/12/24 13:37:14;;;;;;;5.68;5.18;;;;;;;;;;4204305;34;20451;-65
2020/12/24 13:39:40;;;;;;;7.68;6.93;;;;;;;;;;4204156;34;20121;-63
2020/12/24 13:42:07;;;;;;;9.02;8.23;;;;;;;;;;4204330;34;20177;-63
2020/12/24 13:44:41;;;;;;;7.40;6.68;;;;;;;;;;4190738;34;20554;-64
2020/12/24 13:47:18;;;;;;;6.45;5.85;;;;;;;;;;4198462;34;20119;-63
2020/12/24 13:49:44;;;;;;;6.95;6.35;;;;;;;;;;4204140;34;20204;-64
2020/12/24 13:52:10;;;;;;;9.10;6.80;;;;;;;;;;4204292;34;20222;-66
2020/12/24 13:54:36;;;;;;;7.35;6.47;;;;;;;;;;4204127;34;20133;-67
2020/12/24 13:57:01;;;;;;;7.37;6.32;;;;;;;;;;4204194;34;20229;-65
2020/12/24 13:59:27;;;;;;;7.40;6.70;;;;;;;;;;4206084;34;20094;-66
2020/12/24 14:01:54;;;;;;;8.38;7.57;;;;;;;;;;4193297;34;20102;-66
2020/12/24 14:04:20;;;;;;;7.60;6.90;;;;;;;;;;4206279;34;20558;-65
2020/12/24 14:06:47;;;;;;;7.45;6.72;;;;;;;;;;4206531;34;20106;-65
2020/12/24 14:09:13;;;;;;;7.82;6.62;;;;;;;;;;4206348;34;20677;-67
2020/12/24 14:11:39;;;;;;;6.65;6.05;;;;;;;;;;4193579;34;20090;-66
2020/12/24 14:14:05;;;;;;;6.65;5.82;;;;;;;;;;4206096;34;20237;-67
2020/12/24 14:16:31;;;;;;;7.93;5.80;;;;;;;;;;4206283;34;20106;-67
2020/12/24 14:18:57;;;;;;;6.47;5.87;;;;;;;;;;4193317;34;20109;-67
2020/12/24 14:21:23;;;;;;;6.18;5.57;;;;;;;;;;4206263;34;20510;-68
2020/12/24 14:23:49;;;;;;;6.70;6.03;;;;;;;;;;4206092;34;20225;-66
2020/12/24 14:26:16;;;;;;;6.55;5.25;;;;;;;;;;4206432;34;20105;-66
2020/12/24 14:28:42;;;;;;;6.65;5.95;;;;;;;;;;4206112;34;20124;-66
2020/12/24 14:31:08;;;;;;;6.35;5.75;;;;;;;;;;4193298;34;20593;-67
2020/12/24 14:33:34;;;;;;;6.70;6.03;;;;;;;;;;4206160;34;20098;-67